Warnock, OH (43967)

10:12 PM EDT on September 21, 2014 (GMT -0400)
Shadyside, Ohio | Change Station
CLOSE
Current Station
Personal Weather Station
Location: Shadyside, OH
Elevation: 669 ft
Nearby Weather Stations

Elev 669 ft 39.98 °N, 80.74 °W | Updated 16 seconds ago

Clear
Clear
63.3 °F
Feels Like 63.3 °F
N
0.0
Wind Variable Wind from SSE
Gusts 0.0 mph

Today
High -- | Low -- °F
--% Chance of Precip.
Yesterday
High -- | Low -- °F
Precip. -- in
7:10 AM 7:22 PM
Waning Crescent, 4% visible
Pressure 29.86 in
Visibility 10.0 miles
Clouds Clear
Dew Point 51 °F
Humidity 64%
Rainfall 0.00 in
Snow Depth Not available.
UV 0 out of 12
Pollen 1.50 out of 12
Air Quality Not available.
Flu Activity Not available.
METAR KHLG 220153Z AUTO 28013G19KT 10SM CLR 16/08 A2987 RMK AO2 SLP111 T01560083

More Conditions Fewer Conditions

Pressure 29.86 in
Visibility 10.0 miles
Clouds Clear
Dew Point 51 °F
Humidity 64%
Rainfall 0.00 in
Snow Depth Not available.
UV 0 out of 12
Pollen 1.50 out of 12
Air Quality Not available.
Flu Activity Not available.
METAR KHLG 220153Z AUTO 28013G19KT 10SM CLR 16/08 A2987 RMK AO2 SLP111 T01560083

More Conditions Fewer Conditions

10-Day Weather Forecast

Almanac

Astronomy

Sep. 21, 2014 Rise Set
Actual Time 7:10 AM EDT 7:22 PM EDT
Civil Twilight 6:43 AM EDT 7:49 PM EDT
Nautical Twilight 6:11 AM EDT 8:21 PM EDT
Astronomical Twilight 5:39 AM EDT 8:53 PM EDT
Moon 4:42 AM EDT (9/21) 5:57 PM EDT (9/21)
Length of Visible Light 13h 06m
Length of Day
12h 12m
Tomorrow will be 2m 36s shorter.
Waning Crescent, 4% of the Moon is Illuminated
Today
Waning Crescent
Sep 24
New
Oct 1
First Quarter
Oct 8
Full
Oct 15
Last Quarter

Today's Extremes

State Highs State Lows

Community

WunderPhotos

Upload Photos

1,755,347 photos uploaded!

WunderBlogs® & News

Nearby

Snow Depth

Station Depth Elevation
No new snow has been reported.

Earthquake Activity

City Distance Mag. Time & Date
No recent earthquake activity has been reported nearby.
Minimum magnitude displayed is 2.5.

Coastal Water Temperatures

Place Temperature
No Stations Reporting

Nearby Weather Stations